createdAt,value
2018-06-19T05:56:18.298Z,13.57
2018-06-19T05:58:46.074Z,14.47
2018-06-19T06:01:13.865Z,13.50
2018-06-19T06:03:41.691Z,13.85
2018-06-19T06:06:09.802Z,13.60
2018-06-19T06:08:38.421Z,13.97
2018-06-19T06:11:06.633Z,13.80
2018-06-19T06:13:34.840Z,13.93
2018-06-19T06:16:03.625Z,13.83
2018-06-19T06:18:31.656Z,14.00
2018-06-19T06:20:59.940Z,13.10
2018-06-19T06:23:28.211Z,13.70
2018-06-19T06:25:56.246Z,11.47
2018-06-19T06:28:24.079Z,13.43
2018-06-19T06:30:52.584Z,13.67
2018-06-19T06:33:20.325Z,13.43
2018-06-19T06:35:48.204Z,13.80
2018-06-19T06:38:16.241Z,15.10
2018-06-19T06:40:45.199Z,15.60
2018-06-19T06:43:13.192Z,13.47
2018-06-19T06:45:45.810Z,14.73
2018-06-19T06:48:13.754Z,14.93
2018-06-19T06:50:41.546Z,14.60
2018-06-19T06:53:09.681Z,15.43
2018-06-19T06:55:37.541Z,14.37
2018-06-19T06:58:05.327Z,14.07
2018-06-19T07:00:33.468Z,16.23
2018-06-19T07:03:01.230Z,13.00
2018-06-19T07:05:29.366Z,15.90
2018-06-19T07:07:57.196Z,18.93
2018-06-19T07:10:27.548Z,18.37
2018-06-19T07:12:55.483Z,16.70
2018-06-19T07:15:24.123Z,16.00
2018-06-19T07:17:52.386Z,14.93
2018-06-19T07:20:20.462Z,16.37
2018-06-19T07:22:48.909Z,18.30
2018-06-19T07:25:16.719Z,16.83
2018-06-19T07:27:51.384Z,15.53
2018-06-19T07:30:19.291Z,17.70
2018-06-19T07:32:47.341Z,16.90
2018-06-19T07:35:15.138Z,16.90
2018-06-19T07:37:43.164Z,17.10
2018-06-19T07:40:12.069Z,16.90
2018-06-19T07:42:40.233Z,15.80
2018-06-19T07:45:08.414Z,15.90
2018-06-19T07:47:36.690Z,15.27
2018-06-19T07:50:05.171Z,14.00
2018-06-19T07:52:32.928Z,13.70
2018-06-19T07:55:01.477Z,14.00
2018-06-19T07:57:30.210Z,13.90
2018-06-19T07:59:59.751Z,13.23
2018-06-19T08:02:27.823Z,12.60
2018-06-19T08:04:55.776Z,12.43
2018-06-19T08:07:23.639Z,13.40
2018-06-19T08:09:51.382Z,12.70
2018-06-19T08:12:19.352Z,12.17
2018-06-19T08:14:47.440Z,11.00
2018-06-19T08:17:15.728Z,12.47
2018-06-19T08:19:43.564Z,14.03
2018-06-19T08:22:12.289Z,11.70
2018-06-19T08:24:40.479Z,11.23
2018-06-19T08:27:08.229Z,10.10
2018-06-19T08:29:36.130Z,11.77
2018-06-19T08:32:04.091Z,10.07
2018-06-19T08:34:32.447Z,10.70
2018-06-19T08:37:00.326Z,10.20
2018-06-19T08:39:28.238Z,10.10
2018-06-19T08:41:55.931Z,9.30
2018-06-19T08:44:23.766Z,9.70
2018-06-19T08:46:51.479Z,11.40
2018-06-19T08:49:19.264Z,11.80
2018-06-19T08:51:47.202Z,9.53
2018-06-19T08:54:15.085Z,8.53
2018-06-19T08:56:43.002Z,9.33
2018-06-19T08:59:10.692Z,9.77
2018-06-19T09:01:38.566Z,10.30
2018-06-19T09:04:06.342Z,9.37
2018-06-19T09:06:35.169Z,8.70
2018-06-19T09:09:03.207Z,8.77
2018-06-19T09:11:31.093Z,10.10
2018-06-19T09:13:58.942Z,9.13
2018-06-19T09:16:26.802Z,10.23
2018-06-19T09:18:54.594Z,8.67
2018-06-19T09:21:24.166Z,8.27
2018-06-19T09:23:52.615Z,8.23
2018-06-19T09:26:20.580Z,9.80
2018-06-19T09:28:48.470Z,7.97
2018-06-19T09:31:16.486Z,7.93
2018-06-19T09:33:44.188Z,8.00
2018-06-19T09:36:11.971Z,11.60
2018-06-19T09:38:40.601Z,8.30
2018-06-19T09:41:08.338Z,7.80
2018-06-19T09:43:36.052Z,6.30
2018-06-19T09:46:03.984Z,7.23
2018-06-19T09:48:31.853Z,6.10
2018-06-19T09:50:59.583Z,6.33
2018-06-19T09:53:27.458Z,6.83
2018-06-19T09:55:55.611Z,7.73
2018-06-19T09:58:23.738Z,7.03
2018-06-19T10:00:51.642Z,5.00
2018-06-19T10:03:19.468Z,5.50
2018-06-19T10:05:49.615Z,7.10
2018-06-19T10:08:17.521Z,6.50
2018-06-19T10:10:45.421Z,6.20
2018-06-19T10:13:13.663Z,5.40
2018-06-19T10:15:41.564Z,5.43
2018-06-19T10:18:10.064Z,6.13
2018-06-19T10:20:38.212Z,5.60
2018-06-19T10:23:05.968Z,6.47
2018-06-19T10:25:34.101Z,5.50
2018-06-19T10:28:01.795Z,7.03
2018-06-19T10:30:29.963Z,7.67
2018-06-19T10:33:01.724Z,6.83
2018-06-19T10:35:29.568Z,6.40
2018-06-19T10:37:57.295Z,7.20
2018-06-19T10:40:25.093Z,6.70
2018-06-19T10:42:53.169Z,7.40
2018-06-19T10:45:21.165Z,7.57
2018-06-19T10:47:49.105Z,8.00
2018-06-19T10:50:17.087Z,7.40
2018-06-19T10:52:44.835Z,7.93
2018-06-19T10:55:12.608Z,8.63
2018-06-19T10:57:40.610Z,7.50
2018-06-19T11:00:08.697Z,7.50
2018-06-19T11:02:36.617Z,8.10
2018-06-19T11:05:04.627Z,8.17
2018-06-19T11:07:33.133Z,7.03
2018-06-19T11:10:01.707Z,7.40
2018-06-19T11:12:29.725Z,7.37
2018-06-19T11:14:58.295Z,6.23
2018-06-19T11:17:27.025Z,6.90
2018-06-19T11:19:55.767Z,5.13
2018-06-19T11:22:23.465Z,4.90
2018-06-19T11:24:51.204Z,4.67
2018-06-19T11:27:19.097Z,5.37
2018-06-19T11:29:46.874Z,4.43
2018-06-19T11:32:15.012Z,5.50
2018-06-19T11:34:43.161Z,6.83
2018-06-19T11:37:10.919Z,5.93
2018-06-19T11:39:38.881Z,5.80
2018-06-19T11:42:06.975Z,4.87
2018-06-19T11:44:36.367Z,3.50
2018-06-19T11:47:07.460Z,4.63
2018-06-19T11:49:42.289Z,4.60
2018-06-19T11:52:11.580Z,4.90
2018-06-19T11:54:40.260Z,4.80
2018-06-19T11:57:09.199Z,4.17
2018-06-19T11:59:37.127Z,5.67
2018-06-19T12:02:05.183Z,5.23
2018-06-19T12:07:00.532Z,4.97
2018-06-19T12:09:29.355Z,4.03
2018-06-19T12:11:57.560Z,2.60
2018-06-19T12:14:25.356Z,5.30
2018-06-19T12:16:53.251Z,5.50
2018-06-19T12:19:21.107Z,5.40
2018-06-19T12:21:49.448Z,4.47
2018-06-19T12:24:18.402Z,4.37
2018-06-19T12:26:46.417Z,3.53
2018-06-19T12:29:14.419Z,4.23
2018-06-19T12:31:42.294Z,4.07
2018-06-19T12:34:11.281Z,4.37
2018-06-19T12:36:39.404Z,5.10
2018-06-19T12:39:15.087Z,4.00
2018-06-19T12:41:45.156Z,4.43
2018-06-19T12:44:13.461Z,4.00
2018-06-19T13:09:19.145Z,2.60
2018-06-19T13:11:47.597Z,3.07
2018-06-19T13:14:21.068Z,3.03
2018-06-19T13:17:00.460Z,3.13
2018-06-19T13:19:34.095Z,3.40
2018-06-19T13:22:01.960Z,3.10
2018-06-19T13:24:30.346Z,3.03
2018-06-19T13:26:59.735Z,3.10
2018-06-19T13:29:40.276Z,3.03
2018-06-19T13:32:08.687Z,2.70
2018-06-19T13:34:37.018Z,2.63
2018-06-19T13:37:05.545Z,2.87
2018-06-19T13:39:34.099Z,2.77
2018-06-19T13:42:07.491Z,3.27
2018-06-19T13:44:40.734Z,3.43
2018-06-19T13:47:09.525Z,3.07
2018-06-19T13:49:38.166Z,3.43
2018-06-19T14:31:28.946Z,2.67
2018-06-19T14:33:57.146Z,3.47
2018-06-19T14:36:25.078Z,2.97
2018-06-19T14:38:52.803Z,3.40
2018-06-19T14:43:47.769Z,2.50
2018-06-19T14:46:15.742Z,2.50
2018-06-19T14:48:43.712Z,1.73
2018-06-19T15:20:39.375Z,2.83
2018-06-19T15:23:07.238Z,2.10
2018-06-19T15:25:35.191Z,2.90
2018-06-19T15:28:03.243Z,2.10
2018-06-19T15:50:10.760Z,1.35
2018-06-19T15:55:06.245Z,1.70
2018-06-19T16:00:02.453Z,1.50
2018-06-19T16:07:24.794Z,1.60
2018-06-19T16:49:12.711Z,1.90
2018-06-19T16:51:40.417Z,2.10
2018-06-19T16:54:08.343Z,2.10
2018-06-19T16:56:36.355Z,2.00
2018-06-19T16:59:04.106Z,2.67
2018-06-19T17:01:32.643Z,1.80
2018-06-19T17:04:00.493Z,2.10
2018-06-19T17:06:29.005Z,1.93
2018-06-19T17:08:59.450Z,1.87
2018-06-19T17:11:30.051Z,2.15
2018-06-19T17:14:08.845Z,1.60
2018-06-19T17:19:32.694Z,2.00
2018-06-19T17:27:30.908Z,2.10
2018-06-19T18:20:58.541Z,3.67
2018-06-19T18:26:21.313Z,3.40
2018-06-19T18:29:00.851Z,2.50
2018-06-19T18:37:27.950Z,2.50
2018-06-19T18:40:01.105Z,2.47
2018-06-19T18:42:29.620Z,2.27
2018-06-19T18:44:58.621Z,1.80
2018-06-19T18:47:31.672Z,2.23
2018-06-19T18:50:11.583Z,2.50
2018-06-19T19:00:49.501Z,2.30
2018-06-19T19:03:34.350Z,2.60
2018-06-19T19:06:09.989Z,2.90
2018-06-19T19:08:51.618Z,2.50
2018-06-19T19:11:32.518Z,2.95
2018-06-19T19:14:16.756Z,3.40
2018-06-19T19:19:25.219Z,3.30
2018-06-19T19:27:13.238Z,3.27
2018-06-19T19:29:51.767Z,3.20
2018-06-19T19:32:23.844Z,3.90
2018-06-19T19:45:10.764Z,2.53
2018-06-19T19:47:47.629Z,2.90
2018-06-19T20:11:03.348Z,3.50
2018-06-19T20:29:54.187Z,2.90
2018-06-19T20:37:23.442Z,3.50
2018-06-19T20:42:27.415Z,5.37
2018-06-19T20:44:58.712Z,3.20
2018-06-19T20:47:33.766Z,3.43
2018-06-19T20:50:11.606Z,2.40
2018-06-19T20:52:56.675Z,3.13
2018-06-19T20:55:36.387Z,3.17
2018-06-19T20:58:07.928Z,4.00
2018-06-19T21:00:37.789Z,3.60
2018-06-19T21:03:09.399Z,3.70
2018-06-19T21:05:40.569Z,3.63
2018-06-19T21:08:09.755Z,3.10
2018-06-19T21:10:38.129Z,3.13
2018-06-19T21:13:08.710Z,4.23
2018-06-19T21:15:37.970Z,4.37
2018-06-19T21:18:07.730Z,2.93
2018-06-19T21:20:35.747Z,2.70
2018-06-19T21:23:05.088Z,3.27
2018-06-19T21:25:33.033Z,3.03
2018-06-19T21:28:01.188Z,2.50
2018-06-19T21:30:31.928Z,3.13
2018-06-19T21:33:01.277Z,3.73
2018-06-19T21:35:31.030Z,3.07
2018-06-19T21:38:03.803Z,2.90
2018-06-19T21:40:36.289Z,2.20
2018-06-19T21:43:06.119Z,3.40
2018-06-19T21:45:36.321Z,4.40
2018-06-19T21:48:07.535Z,4.77
2018-06-19T21:50:40.622Z,2.90
2018-06-19T21:53:11.916Z,5.03
2018-06-19T21:55:41.716Z,3.20
2018-06-19T21:58:11.302Z,2.87
2018-06-19T22:00:47.430Z,3.80
2018-06-19T22:03:17.995Z,3.33
2018-06-19T22:05:47.521Z,3.27
2018-06-19T22:08:17.234Z,3.67
2018-06-19T22:10:45.776Z,3.37
2018-06-19T22:13:15.175Z,3.13
2018-06-19T22:15:43.875Z,3.43
2018-06-19T22:18:16.307Z,3.50
2018-06-19T22:20:44.506Z,3.77
2018-06-19T22:23:15.961Z,4.67
2018-06-19T22:25:44.901Z,3.60
2018-06-19T22:28:13.318Z,3.97
2018-06-19T22:30:42.239Z,4.73
2018-06-19T22:33:12.502Z,4.30
2018-06-19T22:35:41.248Z,3.87
2018-06-19T22:38:10.208Z,4.00
2018-06-19T22:40:38.885Z,3.90
2018-06-19T22:43:08.040Z,4.40
2018-06-19T22:45:37.107Z,5.57
2018-06-19T22:48:09.553Z,4.13
2018-06-19T22:50:41.286Z,4.40
2018-06-19T22:53:11.307Z,3.50
2018-06-19T22:55:40.307Z,4.13
2018-06-19T22:58:10.065Z,4.70
2018-06-19T23:00:39.238Z,4.00
2018-06-19T23:03:07.705Z,3.70
2018-06-19T23:05:37.905Z,3.83
2018-06-19T23:08:07.926Z,4.87
2018-06-19T23:10:36.273Z,4.60
2018-06-19T23:13:05.391Z,3.60
2018-06-19T23:15:33.828Z,3.77
2018-06-19T23:18:02.907Z,3.90
2018-06-19T23:20:30.883Z,4.23
2018-06-19T23:22:59.747Z,3.97
2018-06-19T23:25:30.620Z,4.10
2018-06-19T23:27:58.716Z,4.30
2018-06-19T23:30:26.440Z,3.30
2018-06-19T23:32:54.439Z,4.27
2018-06-19T23:35:22.557Z,4.37
2018-06-19T23:37:52.449Z,3.73
2018-06-19T23:40:22.283Z,3.90
2018-06-19T23:42:51.598Z,3.87
2018-06-19T23:45:20.546Z,4.43
2018-06-19T23:47:48.726Z,5.00
2018-06-19T23:50:17.108Z,3.80
2018-06-19T23:52:45.606Z,3.30
2018-06-19T23:55:13.617Z,3.90
2018-06-19T23:57:41.503Z,3.70
